Cove, Utah
Current Conditions -  °F | °C
As of 5:51 PM on Thursday 18 Dec 2014 (Local Time) from KLGU Reporting Station
Clear Clear  
Wind Chill: 37°   Ceiling: Unl
Heat Index: 37°   Visibility: 7mi
Dew Point: 29°   Wind: 0mph
Humidity: 73%   Direction: NA
Pressure: 30.15"   Gusts: NA
Location:  41.9637°N, 111.851°W
Report Text: KLGU 190051Z AUTO 00000KT 7SM CLR 03/M02 A3015 RMK AO2 SLP222 T00281017
Loading
Personal Weather Stations






























Interactive Weather Map New forecast layout! Learn more

10-Day Weather Forecast

Advertisements
Track Severe Weather on mobile